createdAt,value
2023-04-18T00:00:06.132Z,7.5073
2023-04-18T00:01:07.133Z,7.4968
2023-04-18T00:02:08.263Z,7.4900
2023-04-18T00:03:09.528Z,7.5157
2023-04-18T00:04:10.524Z,7.5332
2023-04-18T00:05:11.429Z,7.5075
2023-04-18T00:06:12.355Z,7.5476
2023-04-18T00:07:13.390Z,7.5550
2023-04-18T00:08:14.477Z,7.5872
2023-04-18T00:09:15.486Z,7.5903
2023-04-18T00:10:16.511Z,7.6057
2023-04-18T00:11:17.532Z,7.6252
2023-04-18T00:12:18.570Z,7.5880
2023-04-18T00:13:19.673Z,7.5819
2023-04-18T00:14:20.664Z,7.5558
2023-04-18T00:15:21.695Z,7.5913
2023-04-18T00:16:22.816Z,7.5903
2023-04-18T00:17:23.825Z,7.5991
2023-04-18T00:18:24.851Z,7.6242
2023-04-18T00:19:25.856Z,7.6166
2023-04-18T00:20:26.893Z,7.6398
2023-04-18T00:21:27.963Z,7.5923
2023-04-18T00:22:28.973Z,7.5930
2023-04-18T00:23:30.055Z,7.6548
2023-04-18T00:24:31.030Z,7.6634
2023-04-18T00:25:32.117Z,7.6190
2023-04-18T00:26:33.109Z,7.6121
2023-04-18T00:27:34.176Z,7.6252
2023-04-18T00:28:35.267Z,7.6143
2023-04-18T00:29:36.237Z,7.6125
2023-04-18T00:30:37.354Z,7.6209
2023-04-18T00:31:38.323Z,7.6375
2023-04-18T00:32:39.410Z,7.6188
2023-04-18T00:33:40.461Z,7.5880
2023-04-18T00:34:41.462Z,7.5699
2023-04-18T00:35:42.475Z,7.6131
2023-04-18T00:36:43.546Z,7.6065
2023-04-18T00:37:44.615Z,7.6108
2023-04-18T00:38:45.658Z,7.6252
2023-04-18T00:39:46.621Z,7.6221
2023-04-18T00:40:47.689Z,7.6431
2023-04-18T00:41:48.687Z,7.5950
2023-04-18T00:42:49.754Z,7.6355
2023-04-18T00:43:50.737Z,7.6492
2023-04-18T00:44:51.731Z,7.6034
2023-04-18T00:45:52.754Z,7.5969
2023-04-18T00:46:53.792Z,7.6201
2023-04-18T00:47:54.884Z,7.6270
2023-04-18T00:48:55.893Z,7.6363
2023-04-18T00:49:56.941Z,7.6770
2023-04-18T00:50:57.944Z,7.6535
2023-04-18T00:51:58.996Z,7.6665
2023-04-18T00:53:00.048Z,7.6287
2023-04-18T00:54:01.124Z,7.6630
2023-04-18T00:55:02.115Z,7.7018
2023-04-18T00:56:03.170Z,7.6987
2023-04-18T00:57:04.196Z,7.6371
2023-04-18T00:58:05.241Z,7.6644
2023-04-18T00:59:06.314Z,7.6178
2023-04-18T01:00:07.312Z,7.6741
2023-04-18T01:01:08.393Z,7.7378
2023-04-18T01:02:09.420Z,7.6599
2023-04-18T01:03:10.715Z,7.6459
2023-04-18T01:04:11.699Z,7.6848
2023-04-18T01:05:12.503Z,7.7000
2023-04-18T01:06:13.545Z,7.7000
2023-04-18T01:07:14.577Z,7.6708
2023-04-18T01:08:15.619Z,7.6720
2023-04-18T01:09:16.712Z,7.7240
2023-04-18T01:10:17.709Z,7.7238
2023-04-18T01:11:18.754Z,7.7035
2023-04-18T01:12:19.781Z,7.7002
2023-04-18T01:13:20.826Z,7.6677
2023-04-18T01:14:21.916Z,7.6881
2023-04-18T01:15:22.946Z,7.7033
2023-04-18T01:16:24.069Z,7.7226
2023-04-18T01:17:25.015Z,7.7540
2023-04-18T01:18:26.007Z,7.7778
2023-04-18T01:19:27.115Z,7.7636
2023-04-18T01:20:28.110Z,7.7189
2023-04-18T01:21:29.164Z,7.7010
2023-04-18T01:22:30.187Z,7.6934
2023-04-18T01:23:31.240Z,7.6353
2023-04-18T01:24:32.297Z,7.6720
2023-04-18T01:25:33.303Z,7.7055
2023-04-18T01:26:34.351Z,7.6883
2023-04-18T01:27:35.382Z,7.6677
2023-04-18T01:28:36.428Z,7.6716
2023-04-18T01:29:38.959Z,7.6854
2023-04-18T01:30:38.583Z,7.6644
2023-04-18T01:31:39.596Z,7.6895
2023-04-18T01:32:40.736Z,7.6704
2023-04-18T01:33:41.643Z,7.6566
2023-04-18T01:34:42.707Z,7.6702
2023-04-18T01:35:43.735Z,7.6942
2023-04-18T01:36:44.765Z,7.7197
2023-04-18T01:37:45.809Z,7.7100
2023-04-18T01:38:46.848Z,7.6624
2023-04-18T01:39:47.919Z,7.6657
2023-04-18T01:40:48.917Z,7.6505
2023-04-18T01:41:49.946Z,7.6624
2023-04-18T01:42:51.009Z,7.6525
2023-04-18T01:43:52.034Z,7.6722
2023-04-18T01:44:53.109Z,7.6634
2023-04-18T01:45:54.104Z,7.6669
2023-04-18T01:46:55.204Z,7.6568
2023-04-18T01:47:56.272Z,7.6593
2023-04-18T01:48:57.234Z,7.6930
2023-04-18T01:49:58.286Z,7.6967
2023-04-18T01:50:59.310Z,7.6848
2023-04-18T01:52:00.360Z,7.7039
2023-04-18T01:53:01.394Z,7.6457
2023-04-18T01:54:02.425Z,7.6589
2023-04-18T01:55:03.480Z,7.6776
2023-04-18T01:56:04.497Z,7.6408
2023-04-18T01:57:05.539Z,7.6330
2023-04-18T01:58:06.577Z,7.6679
2023-04-18T01:59:07.620Z,7.6741
2023-04-18T02:00:08.682Z,7.6872
2023-04-18T02:01:09.734Z,7.6932
2023-04-18T02:02:10.822Z,7.6936
2023-04-18T02:03:11.832Z,7.6870
2023-04-18T02:04:13.158Z,7.6915
2023-04-18T02:05:13.879Z,7.6548
2023-04-18T02:06:14.954Z,7.6217
2023-04-18T02:07:15.967Z,7.6429
2023-04-18T02:08:16.945Z,7.6640
2023-04-18T02:09:17.992Z,7.6878
2023-04-18T02:10:19.068Z,7.6531
2023-04-18T02:11:20.111Z,7.6601
2023-04-18T02:12:21.118Z,7.6644
2023-04-18T02:13:22.157Z,7.6168
2023-04-18T02:14:23.181Z,7.6010
2023-04-18T02:15:24.263Z,7.5827
2023-04-18T02:16:25.281Z,7.5870
2023-04-18T02:17:26.293Z,7.6145
2023-04-18T02:18:27.359Z,7.5993
2023-04-18T02:19:28.379Z,7.6441
2023-04-18T02:20:29.436Z,7.6330
2023-04-18T02:21:30.487Z,7.6217
2023-04-18T02:22:31.510Z,7.6349
2023-04-18T02:23:32.565Z,7.6462
2023-04-18T02:24:33.594Z,7.6420
2023-04-18T02:25:34.675Z,7.6891
2023-04-18T02:26:35.706Z,7.6441
2023-04-18T02:27:36.718Z,7.6236
2023-04-18T02:28:37.754Z,7.6209
2023-04-18T02:29:38.816Z,7.6527
2023-04-18T02:30:39.896Z,7.6535
2023-04-18T02:31:40.902Z,7.6698
2023-04-18T02:32:41.922Z,7.6687
2023-04-18T02:33:42.936Z,7.6342
2023-04-18T02:34:43.998Z,7.6472
2023-04-18T02:35:45.045Z,7.6710
2023-04-18T02:36:46.083Z,7.6759
2023-04-18T02:37:47.113Z,7.6199
2023-04-18T02:38:48.160Z,7.6305
2023-04-18T02:39:49.209Z,7.6414
2023-04-18T02:40:50.253Z,7.5607
2023-04-18T02:41:51.321Z,7.6316
2023-04-18T02:42:52.373Z,7.6242
2023-04-18T02:43:53.369Z,7.6242
2023-04-18T02:44:54.398Z,7.6398
2023-04-18T02:45:55.499Z,7.6166
2023-04-18T02:46:56.469Z,7.6147
2023-04-18T02:47:57.580Z,7.6687
2023-04-18T02:48:58.572Z,7.6722
2023-04-18T02:49:59.631Z,7.6371
2023-04-18T02:51:00.695Z,7.6698
2023-04-18T02:52:01.709Z,7.6667
2023-04-18T02:53:02.768Z,7.6774
2023-04-18T02:54:03.828Z,7.6513
2023-04-18T02:55:04.832Z,7.6913
2023-04-18T02:56:05.929Z,7.6601
2023-04-18T02:57:06.932Z,7.6209
2023-04-18T02:58:07.998Z,7.6646
2023-04-18T02:59:08.996Z,7.6340
2023-04-18T03:00:10.041Z,7.6211
2023-04-18T03:01:11.141Z,7.6420
2023-04-18T03:02:12.129Z,7.6349
2023-04-18T03:03:13.229Z,7.6137
2023-04-18T03:04:14.464Z,7.6437
2023-04-18T03:05:15.217Z,7.6398
2023-04-18T03:06:16.379Z,7.6453
2023-04-18T03:07:17.325Z,7.6679
2023-04-18T03:08:18.360Z,7.6815
2023-04-18T03:09:19.411Z,7.6258
2023-04-18T03:10:20.494Z,7.6153
2023-04-18T03:11:21.574Z,7.6012
2023-04-18T03:12:22.589Z,7.6404
2023-04-18T03:13:23.661Z,7.6330
2023-04-18T03:14:24.672Z,7.6305
2023-04-18T03:15:25.718Z,7.6373
2023-04-18T03:16:26.829Z,7.6437
2023-04-18T03:17:27.806Z,7.6110
2023-04-18T03:18:28.867Z,7.6133
2023-04-18T03:19:29.858Z,7.6242
2023-04-18T03:20:30.918Z,7.6108
2023-04-18T03:21:32.001Z,7.5997
2023-04-18T03:22:33.042Z,7.6217
2023-04-18T03:23:34.052Z,7.6622
2023-04-18T03:24:35.121Z,7.6373
2023-04-18T03:25:36.129Z,7.6160
2023-04-18T03:26:37.207Z,7.5969
2023-04-18T03:27:38.267Z,7.6102
2023-04-18T03:28:39.285Z,7.6431
2023-04-18T03:29:40.295Z,7.6457
2023-04-18T03:30:41.336Z,7.6178
2023-04-18T03:31:42.523Z,7.6328
2023-04-18T03:32:43.525Z,7.6322
2023-04-18T03:33:44.475Z,7.6648
2023-04-18T03:34:45.516Z,7.6542
2023-04-18T03:35:46.535Z,7.6353
2023-04-18T03:36:48.156Z,7.6328
2023-04-18T03:37:48.615Z,7.5979
2023-04-18T03:38:49.756Z,7.5903
2023-04-18T03:39:50.717Z,7.6065
2023-04-18T03:40:51.736Z,7.5991
2023-04-18T03:41:52.773Z,7.6123
2023-04-18T03:42:53.851Z,7.6028
2023-04-18T03:43:54.866Z,7.6086
2023-04-18T03:44:55.880Z,7.6451
2023-04-18T03:45:57.131Z,7.6266
2023-04-18T03:46:57.958Z,7.6045
2023-04-18T03:47:59.041Z,7.6229
2023-04-18T03:49:00.036Z,7.6515
2023-04-18T03:50:01.064Z,7.6057
2023-04-18T03:51:02.103Z,7.5915
2023-04-18T03:52:03.155Z,7.6065
2023-04-18T03:53:04.213Z,7.6392
2023-04-18T03:54:05.255Z,7.6776
2023-04-18T03:55:06.257Z,7.6492
2023-04-18T03:56:07.326Z,7.6918
2023-04-18T03:57:08.517Z,7.6922
2023-04-18T03:58:09.457Z,7.6913
2023-04-18T03:59:10.460Z,7.7205
2023-04-18T04:00:11.464Z,7.7022
2023-04-18T04:01:12.498Z,7.6373
2023-04-18T04:02:13.592Z,7.6291
2023-04-18T04:03:14.698Z,7.6751
2023-04-18T04:04:16.216Z,7.6338
2023-04-18T04:05:16.677Z,7.6320
2023-04-18T04:06:17.744Z,7.6535
2023-04-18T04:07:18.741Z,7.6558
2023-04-18T04:08:19.842Z,7.6609
2023-04-18T04:09:20.835Z,7.6714
2023-04-18T04:10:21.877Z,7.6605
2023-04-18T04:11:23.110Z,7.6178
2023-04-18T04:12:23.944Z,7.6375
2023-04-18T04:13:24.998Z,7.6554
2023-04-18T04:14:26.150Z,7.6593
2023-04-18T04:15:27.081Z,7.6199
2023-04-18T04:16:28.294Z,7.6289
2023-04-18T04:17:29.339Z,7.6377
2023-04-18T04:18:30.222Z,7.6077
2023-04-18T04:19:31.247Z,7.5862
2023-04-18T04:20:32.271Z,7.5784
2023-04-18T04:21:33.282Z,7.6065
2023-04-18T04:22:34.360Z,7.5591
2023-04-18T04:23:35.438Z,7.5905
2023-04-18T04:24:36.445Z,7.5915
2023-04-18T04:25:37.448Z,7.5508
2023-04-18T04:26:38.634Z,7.5630
2023-04-18T04:27:39.545Z,7.5710
2023-04-18T04:28:40.624Z,7.5564
2023-04-18T04:29:41.650Z,7.5794
2023-04-18T04:30:42.656Z,7.5743
2023-04-18T04:31:43.813Z,7.5977
2023-04-18T04:32:44.781Z,7.6024
2023-04-18T04:33:45.810Z,7.5971
2023-04-18T04:34:46.828Z,7.5437
2023-04-18T04:35:47.886Z,7.5839
2023-04-18T04:36:48.909Z,7.5687
2023-04-18T04:37:49.938Z,7.5498
2023-04-18T04:38:51.018Z,7.5788
2023-04-18T04:39:52.000Z,7.6055
2023-04-18T04:40:53.052Z,7.6601
2023-04-18T04:41:54.120Z,7.6505
2023-04-18T04:42:55.115Z,7.5966
2023-04-18T04:43:56.179Z,7.6262
2023-04-18T04:44:57.275Z,7.5884
2023-04-18T04:45:58.253Z,7.5983
2023-04-18T04:46:59.438Z,7.6558
2023-04-18T04:48:00.400Z,7.6558
2023-04-18T04:49:01.401Z,7.6351
2023-04-18T04:50:02.388Z,7.6540
2023-04-18T04:51:03.596Z,7.6470
2023-04-18T04:52:04.464Z,7.6153
2023-04-18T04:53:05.502Z,7.6655
2023-04-18T04:54:06.551Z,7.6819
2023-04-18T04:55:07.697Z,7.6535
2023-04-18T04:56:08.629Z,7.6381
2023-04-18T04:57:09.669Z,7.6394
2023-04-18T04:58:10.698Z,7.6164
2023-04-18T04:59:11.738Z,7.5574
2023-04-18T05:00:12.745Z,7.5722
2023-04-18T05:01:13.874Z,7.5903
2023-04-18T05:02:14.959Z,7.6088
2023-04-18T05:03:16.070Z,7.6316
2023-04-18T05:04:17.477Z,7.6133
2023-04-18T05:05:18.073Z,7.6414
2023-04-18T05:06:19.061Z,7.6121
2023-04-18T05:07:20.212Z,7.5946
2023-04-18T05:08:21.134Z,7.6001
2023-04-18T05:09:22.301Z,7.6525
2023-04-18T05:10:23.202Z,7.6909
2023-04-18T05:11:24.254Z,7.7154
2023-04-18T05:12:25.295Z,7.7111
2023-04-18T05:13:26.340Z,7.6533
2023-04-18T05:14:27.419Z,7.7419
2023-04-18T05:15:28.425Z,7.7875
2023-04-18T05:16:29.456Z,7.7910
2023-04-18T05:17:30.510Z,7.8327
2023-04-18T05:18:33.059Z,7.7938
2023-04-18T05:19:32.599Z,7.8633
2023-04-18T05:20:33.579Z,7.9251
2023-04-18T05:21:34.610Z,7.9419
2023-04-18T05:22:35.722Z,7.8965
2023-04-18T05:23:36.681Z,7.9054
2023-04-18T05:24:37.800Z,7.9138
2023-04-18T05:25:38.767Z,7.9391
2023-04-18T05:26:39.794Z,8.0046
2023-04-18T05:27:40.870Z,8.0946
2023-04-18T05:28:41.907Z,8.0208
2023-04-18T05:29:42.970Z,8.0362
2023-04-18T05:30:44.024Z,8.0900
2023-04-18T05:31:44.999Z,7.9389
2023-04-18T05:32:46.190Z,7.8968
2023-04-18T05:33:47.086Z,7.9232
2023-04-18T05:34:48.167Z,7.9117
2023-04-18T05:35:49.181Z,7.9089
2023-04-18T05:36:50.263Z,7.8803
2023-04-18T05:37:51.202Z,7.9154
2023-04-18T05:38:52.276Z,7.9356
2023-04-18T05:39:53.350Z,7.9401
2023-04-18T05:40:54.363Z,7.9543
2023-04-18T05:41:55.391Z,8.0081
2023-04-18T05:42:56.417Z,8.0405
2023-04-18T05:44:04.923Z,7.9843
2023-04-18T05:44:58.535Z,8.0200
2023-04-18T05:45:59.623Z,7.9337
2023-04-18T05:47:00.560Z,7.9639
2023-04-18T05:48:01.833Z,8.0350
2023-04-18T05:49:02.632Z,8.1104
2023-04-18T05:50:03.755Z,8.0190
2023-04-18T05:51:04.712Z,7.9867
2023-04-18T05:52:05.750Z,8.0253
2023-04-18T05:53:06.809Z,8.0360
2023-04-18T05:54:07.873Z,8.1720
2023-04-18T05:55:08.936Z,8.1971
2023-04-18T05:56:09.958Z,8.1819
2023-04-18T05:57:10.971Z,8.1835
2023-04-18T05:58:12.290Z,8.1556
2023-04-18T05:59:13.046Z,8.0882
2023-04-18T06:00:14.187Z,8.0200
2023-04-18T06:01:15.342Z,8.0101
2023-04-18T06:02:16.165Z,7.9824
2023-04-18T06:03:17.543Z,8.0266
2023-04-18T06:04:18.464Z,8.0436
2023-04-18T06:05:19.719Z,8.0574
2023-04-18T06:06:20.254Z,8.0631
2023-04-18T06:07:21.306Z,8.0872
2023-04-18T06:08:22.344Z,8.2145
2023-04-18T06:09:23.412Z,8.1786
2023-04-18T06:10:24.467Z,8.1595
2023-04-18T06:11:25.509Z,8.2102
2023-04-18T06:12:26.524Z,8.2145
2023-04-18T06:13:27.556Z,8.1439
2023-04-18T06:14:28.581Z,8.1831
2023-04-18T06:15:29.665Z,8.1116
2023-04-18T06:16:30.733Z,8.1282
2023-04-18T06:17:31.743Z,8.1617
2023-04-18T06:18:32.749Z,8.1679
2023-04-18T06:19:33.803Z,8.1307
2023-04-18T06:20:34.826Z,8.1757
2023-04-18T06:21:35.851Z,8.1400
2023-04-18T06:22:36.914Z,8.0870
2023-04-18T06:23:37.958Z,8.1851
2023-04-18T06:24:38.966Z,8.2133
2023-04-18T06:25:40.012Z,8.2747
2023-04-18T06:26:41.057Z,8.3869
2023-04-18T06:27:42.092Z,8.4651
2023-04-18T06:28:43.118Z,8.3784
2023-04-18T06:29:44.154Z,8.3871
2023-04-18T06:30:45.151Z,8.3891
2023-04-18T06:31:46.307Z,8.3906
2023-04-18T06:32:47.361Z,8.4390
2023-04-18T06:33:48.258Z,8.4316
2023-04-18T06:34:49.310Z,8.3222
2023-04-18T06:35:50.359Z,8.4088
2023-04-18T06:36:51.410Z,8.3938
2023-04-18T06:37:52.640Z,8.4193
2023-04-18T06:38:53.558Z,8.4600
2023-04-18T06:39:54.650Z,8.4889
2023-04-18T06:40:55.663Z,8.4312
2023-04-18T06:41:56.735Z,8.3102
2023-04-18T06:42:57.710Z,8.3230
2023-04-18T06:44:04.229Z,8.2591
2023-04-18T06:44:59.811Z,8.3330
2023-04-18T06:46:00.852Z,8.2519
2023-04-18T06:47:02.162Z,8.2472
2023-04-18T06:48:02.948Z,8.1757
2023-04-18T06:49:03.977Z,8.2079
2023-04-18T06:50:04.988Z,8.1827
2023-04-18T06:51:06.045Z,8.2429
2023-04-18T06:52:07.140Z,8.3215
2023-04-18T06:53:08.171Z,8.3273
2023-04-18T06:54:09.166Z,8.4000
2023-04-18T06:55:10.166Z,8.3641
2023-04-18T06:56:11.231Z,8.4205
2023-04-18T06:57:12.290Z,8.4555
2023-04-18T06:58:13.289Z,8.3002
2023-04-18T06:59:14.514Z,8.2938
2023-04-18T07:00:15.395Z,8.2484
2023-04-18T07:01:16.412Z,8.1944
2023-04-18T07:02:17.498Z,8.2172
2023-04-18T07:03:18.745Z,8.1523
2023-04-18T07:04:19.870Z,8.1276
2023-04-18T07:05:20.518Z,8.1416
2023-04-18T07:06:21.613Z,8.1660
2023-04-18T07:07:22.636Z,8.1708
2023-04-18T07:08:23.654Z,8.1385
2023-04-18T07:09:24.716Z,8.1342
2023-04-18T07:10:25.735Z,8.1716
2023-04-18T07:11:26.843Z,8.2774
2023-04-18T07:12:27.929Z,8.4230
2023-04-18T07:13:28.912Z,8.5105
2023-04-18T07:14:30.820Z,8.4088
2023-04-18T07:15:31.005Z,8.2948
2023-04-18T07:16:32.067Z,8.3295
2023-04-18T07:17:33.168Z,8.3934
2023-04-18T07:18:38.117Z,8.5035
2023-04-18T07:19:35.145Z,8.5880
2023-04-18T07:20:36.195Z,8.4232
2023-04-18T07:21:37.111Z,8.3979
2023-04-18T07:22:38.276Z,8.3953
2023-04-18T07:23:39.317Z,8.3793
2023-04-18T07:24:40.331Z,8.4325
2023-04-18T07:25:41.352Z,8.4099
2023-04-18T07:26:42.398Z,8.5076
2023-04-18T07:27:43.462Z,8.5886
2023-04-18T07:28:44.531Z,8.5906
2023-04-18T07:29:45.525Z,8.6648
2023-04-18T07:30:46.578Z,8.7038
2023-04-18T07:31:47.556Z,8.7730
2023-04-18T07:32:48.754Z,8.6925
2023-04-18T07:33:49.645Z,8.6036
2023-04-18T07:34:50.678Z,8.6837
2023-04-18T07:35:51.739Z,8.7301
2023-04-18T07:36:52.769Z,8.6027
2023-04-18T07:37:53.820Z,8.6097
2023-04-18T07:38:54.848Z,8.6835
2023-04-18T07:39:56.062Z,8.8020
2023-04-18T07:40:56.885Z,8.7297
2023-04-18T07:41:57.872Z,8.5958
2023-04-18T07:42:59.045Z,8.7317
2023-04-18T07:43:59.975Z,8.8174
2023-04-18T07:45:00.999Z,8.7784
2023-04-18T07:46:02.632Z,8.7956
2023-04-18T07:47:02.994Z,8.7309
2023-04-18T07:48:04.127Z,8.7040
2023-04-18T07:49:05.068Z,8.7437
2023-04-18T07:50:06.109Z,8.9092
2023-04-18T07:51:07.589Z,9.1218
2023-04-18T07:52:08.162Z,9.1877
2023-04-18T07:53:09.235Z,9.1327
2023-04-18T07:54:10.242Z,8.9772
2023-04-18T07:55:11.292Z,9.0335
2023-04-18T07:56:12.316Z,8.9166
2023-04-18T07:57:13.822Z,8.9530
2023-04-18T07:58:14.380Z,9.1978
2023-04-18T07:59:15.732Z,9.0329
2023-04-18T08:00:16.467Z,8.9803
2023-04-18T08:01:17.522Z,8.9076
2023-04-18T08:02:18.560Z,9.0364
2023-04-18T08:03:20.113Z,9.1674
2023-04-18T08:04:20.704Z,9.4952
2023-04-18T08:05:21.673Z,9.2970
2023-04-18T08:06:22.646Z,9.1132
2023-04-18T08:07:23.700Z,9.1368
2023-04-18T08:08:24.799Z,9.1933
2023-04-18T08:09:25.805Z,9.2627
2023-04-18T08:10:26.882Z,9.5131
2023-04-18T08:11:27.895Z,9.4657
2023-04-18T08:12:28.922Z,9.4121
2023-04-18T08:13:30.012Z,9.6411
2023-04-18T08:14:30.947Z,9.7650
2023-04-18T08:15:32.028Z,9.7419
2023-04-18T08:16:33.078Z,9.9745
2023-04-18T08:17:34.137Z,9.9728
2023-04-18T08:18:35.179Z,10.0630
2023-04-18T08:19:36.159Z,9.6477
2023-04-18T08:20:37.278Z,9.7613
2023-04-18T08:21:38.221Z,9.9556
2023-04-18T08:22:49.981Z,10.4249
2023-04-18T08:23:40.342Z,10.4340
2023-04-18T08:24:44.549Z,10.1595
2023-04-18T08:25:42.355Z,10.3380
2023-04-18T08:26:43.436Z,11.0282
2023-04-18T08:27:44.431Z,10.3781
2023-04-18T08:28:46.484Z,10.0256
2023-04-18T08:29:46.566Z,10.7076
2023-04-18T08:30:47.562Z,10.0899
2023-04-18T08:31:48.649Z,9.9303
2023-04-18T08:32:49.817Z,10.0275
2023-04-18T08:33:50.699Z,10.1501
2023-04-18T08:34:51.746Z,10.2327
2023-04-18T08:35:52.721Z,9.9691
2023-04-18T08:36:53.785Z,9.8001
2023-04-18T08:37:54.789Z,9.7358
2023-04-18T08:38:55.873Z,9.5141
2023-04-18T08:39:56.869Z,9.4063
2023-04-18T08:40:57.879Z,9.4570
2023-04-18T08:41:58.948Z,9.5141
2023-04-18T08:43:00.008Z,9.5166
2023-04-18T08:44:01.182Z,9.5858
2023-04-18T08:45:02.182Z,9.6253
2023-04-18T08:46:03.375Z,9.7005
2023-04-18T08:47:04.253Z,9.6760
2023-04-18T08:48:05.279Z,9.6049
2023-04-18T08:49:06.425Z,9.7598
2023-04-18T08:50:07.321Z,9.7128
2023-04-18T08:51:08.356Z,9.6865
2023-04-18T08:52:09.405Z,9.9073
2023-04-18T08:53:10.442Z,10.1698
2023-04-18T08:54:11.586Z,10.0503
2023-04-18T08:55:12.529Z,9.9677
2023-04-18T08:56:13.577Z,9.9241
2023-04-18T08:57:14.590Z,10.0916
2023-04-18T08:58:15.679Z,10.2253
2023-04-18T08:59:16.694Z,9.9776
2023-04-18T09:00:17.735Z,9.7551
2023-04-18T09:01:18.769Z,9.8816
2023-04-18T09:02:19.817Z,9.9767
2023-04-18T09:03:20.805Z,9.9426
2023-04-18T09:04:22.076Z,9.8599
2023-04-18T09:05:22.883Z,9.8584
2023-04-18T09:06:24.379Z,9.9474
2023-04-18T09:07:24.978Z,10.1127
2023-04-18T09:08:26.037Z,10.2035
2023-04-18T09:09:27.089Z,10.0338
2023-04-18T09:10:28.142Z,10.0373
2023-04-18T09:11:29.525Z,10.0318
2023-04-18T09:12:30.212Z,10.2076
2023-04-18T09:13:31.243Z,10.2503
2023-04-18T09:14:32.301Z,10.3760
2023-04-18T09:15:33.315Z,10.2549
2023-04-18T09:16:34.478Z,10.1293
2023-04-18T09:17:35.417Z,10.2425
2023-04-18T09:18:36.412Z,10.3769
2023-04-18T09:19:37.546Z,10.2974
2023-04-18T09:20:38.615Z,10.4790
2023-04-18T09:21:39.569Z,10.6164
2023-04-18T09:22:40.600Z,10.6651
2023-04-18T09:23:41.610Z,10.4568
2023-04-18T09:24:42.615Z,10.5377
2023-04-18T09:25:44.958Z,10.5603
2023-04-18T09:26:44.654Z,10.4190
2023-04-18T09:27:45.705Z,10.3993
2023-04-18T09:28:46.738Z,10.2992
2023-04-18T09:29:47.815Z,10.4381
2023-04-18T09:30:48.828Z,10.6359
2023-04-18T09:31:49.873Z,10.5880
2023-04-18T09:32:50.967Z,10.6414
2023-04-18T09:33:51.952Z,10.9828
2023-04-18T09:34:53.152Z,10.6704
2023-04-18T09:35:54.010Z,10.4336
2023-04-18T09:36:55.104Z,10.1020
2023-04-18T09:37:56.084Z,10.3317
2023-04-18T09:38:57.458Z,10.3902
2023-04-18T09:39:58.220Z,10.3875
2023-04-18T09:40:59.183Z,10.4818
2023-04-18T09:42:00.250Z,10.4321
2023-04-18T09:43:01.277Z,10.6250
2023-04-18T09:44:02.371Z,10.7517
2023-04-18T09:45:03.452Z,10.7924
2023-04-18T09:46:04.515Z,10.5776
2023-04-18T09:47:05.459Z,10.6279
2023-04-18T09:48:06.537Z,10.2575
2023-04-18T09:49:09.676Z,10.3259
2023-04-18T09:50:08.662Z,10.3793
2023-04-18T09:51:09.689Z,10.5381
2023-04-18T09:52:10.689Z,10.5687
2023-04-18T09:53:11.701Z,10.5724
2023-04-18T09:54:12.931Z,10.5176
2023-04-18T09:55:13.902Z,10.4198
2023-04-18T09:56:14.846Z,10.4046
2023-04-18T09:57:15.874Z,10.3707
2023-04-18T09:58:16.944Z,10.4216
2023-04-18T09:59:20.507Z,10.4857
2023-04-18T10:00:18.993Z,10.5449
2023-04-18T10:01:20.135Z,10.7111
2023-04-18T10:02:21.192Z,10.6073
2023-04-18T10:03:22.256Z,10.6361
2023-04-18T10:04:23.213Z,10.9736
2023-04-18T10:05:24.250Z,11.4534
2023-04-18T10:06:25.238Z,11.3608
2023-04-18T10:07:26.325Z,11.2345
2023-04-18T10:08:27.356Z,11.0231
2023-04-18T10:09:28.455Z,11.0360
2023-04-18T10:10:29.530Z,11.0502
2023-04-18T10:11:30.546Z,10.9152
2023-04-18T10:12:31.508Z,10.8230
2023-04-18T10:13:32.568Z,10.8844
2023-04-18T10:14:33.602Z,11.0104
2023-04-18T10:15:34.638Z,11.0383
2023-04-18T10:16:36.407Z,11.0835
2023-04-18T10:17:36.762Z,10.9276
2023-04-18T10:18:38.087Z,10.9921
2023-04-18T10:19:38.791Z,10.9543
2023-04-18T10:20:40.083Z,11.0167
2023-04-18T10:21:41.001Z,11.1424
2023-04-18T10:22:41.935Z,11.2460
2023-04-18T10:23:42.949Z,10.7061
2023-04-18T10:24:44.008Z,10.9719
2023-04-18T10:25:45.008Z,11.1517
2023-04-18T10:26:46.156Z,11.0159
2023-04-18T10:27:47.177Z,10.9863
2023-04-18T10:28:48.180Z,10.9730
2023-04-18T10:29:49.183Z,10.8643
2023-04-18T10:30:50.242Z,10.6529
2023-04-18T10:31:51.383Z,10.7791
2023-04-18T10:32:52.336Z,10.8682
2023-04-18T10:34:04.014Z,10.7355
2023-04-18T10:34:54.433Z,10.9015
2023-04-18T10:35:55.401Z,10.8949
2023-04-18T10:36:56.475Z,10.9179
2023-04-18T10:37:57.481Z,11.0309
2023-04-18T10:38:58.520Z,10.9851
2023-04-18T10:39:59.532Z,11.0048
2023-04-18T10:41:00.594Z,10.9666
2023-04-18T10:42:01.657Z,11.0699
2023-04-18T10:43:02.779Z,11.2764
2023-04-18T10:44:03.694Z,11.1878
2023-04-18T10:45:04.729Z,11.1778
2023-04-18T10:46:07.439Z,11.1942
2023-04-18T10:47:06.921Z,11.2784
2023-04-18T10:48:07.873Z,11.2082
2023-04-18T10:49:08.886Z,11.0742
2023-04-18T10:50:09.926Z,10.9362
2023-04-18T10:51:11.098Z,11.0948
2023-04-18T10:52:13.364Z,11.0777
2023-04-18T10:53:13.072Z,11.0827
2023-04-18T10:54:14.212Z,10.9220
2023-04-18T10:55:15.168Z,11.1476
2023-04-18T10:56:16.190Z,11.1609
2023-04-18T10:57:17.302Z,11.1952
2023-04-18T10:58:18.168Z,11.3684
2023-04-18T10:59:19.234Z,11.6143
2023-04-18T11:00:20.416Z,11.8566
2023-04-18T11:01:21.331Z,11.6099
2023-04-18T11:02:22.396Z,11.6679
2023-04-18T11:03:23.506Z,11.8727
2023-04-18T11:04:24.510Z,11.6558
2023-04-18T11:05:25.463Z,11.6919
2023-04-18T11:06:26.479Z,11.7266
2023-04-18T11:07:29.921Z,11.7539
2023-04-18T11:08:28.572Z,11.5520
2023-04-18T11:09:29.614Z,11.4569
2023-04-18T11:10:30.667Z,11.4160
2023-04-18T11:11:31.763Z,11.5040
2023-04-18T11:12:32.826Z,11.4707
2023-04-18T11:13:33.850Z,11.4158
2023-04-18T11:14:35.016Z,11.4464
2023-04-18T11:15:36.105Z,11.5656
2023-04-18T11:16:36.979Z,11.4924
2023-04-18T11:17:38.034Z,11.6625
2023-04-18T11:18:39.042Z,11.9234
2023-04-18T11:19:40.092Z,11.8575
2023-04-18T11:20:41.120Z,11.9895
2023-04-18T11:21:42.188Z,11.7979
2023-04-18T11:22:43.206Z,11.7295
2023-04-18T11:23:44.290Z,11.9203
2023-04-18T11:24:45.264Z,11.8632
2023-04-18T11:25:46.308Z,11.8262
2023-04-18T11:26:47.299Z,11.8478
2023-04-18T11:27:48.376Z,11.6432
2023-04-18T11:28:49.401Z,11.6206
2023-04-18T11:29:50.409Z,11.4306
2023-04-18T11:30:51.438Z,11.4411
2023-04-18T11:31:52.831Z,11.6837
2023-04-18T11:32:53.565Z,11.7537
2023-04-18T11:33:54.583Z,11.8959
2023-04-18T11:34:55.570Z,12.0627
2023-04-18T11:35:56.635Z,11.9232
2023-04-18T11:36:57.647Z,11.8564
2023-04-18T11:37:58.664Z,11.9700
2023-04-18T11:38:59.793Z,11.8720
2023-04-18T11:40:00.773Z,11.7860
2023-04-18T11:41:01.811Z,11.7149
2023-04-18T11:42:02.842Z,11.7426
2023-04-18T11:43:03.875Z,11.6500
2023-04-18T11:44:04.989Z,11.7839
2023-04-18T11:45:05.941Z,12.0770
2023-04-18T11:46:07.010Z,12.0542
2023-04-18T11:47:08.022Z,12.0608
2023-04-18T11:48:09.191Z,12.0008
2023-04-18T11:49:10.132Z,11.8965
2023-04-18T11:50:11.121Z,11.9435
2023-04-18T11:51:12.326Z,12.2486
2023-04-18T11:52:13.494Z,12.2905
2023-04-18T11:53:14.232Z,12.3675
2023-04-18T11:54:15.441Z,12.5084
2023-04-18T11:55:16.318Z,12.8843
2023-04-18T11:56:17.373Z,12.5127
2023-04-18T11:57:18.387Z,12.8574
2023-04-18T11:58:19.423Z,12.7329
2023-04-18T11:59:20.500Z,12.5199
2023-04-18T12:00:21.527Z,12.3589
2023-04-18T12:01:22.906Z,12.3706
2023-04-18T12:02:23.665Z,12.2668
2023-04-18T12:03:25.134Z,12.3564
2023-04-18T12:04:25.754Z,12.5446
2023-04-18T12:05:26.804Z,12.8085
2023-04-18T12:06:27.763Z,12.8075
2023-04-18T12:07:28.879Z,12.5945
2023-04-18T12:08:29.771Z,12.7200
2023-04-18T12:09:30.858Z,12.8607
2023-04-18T12:10:31.883Z,12.8892
2023-04-18T12:11:32.878Z,12.6785
2023-04-18T12:12:33.905Z,12.7060
2023-04-18T12:13:34.961Z,12.7960
2023-04-18T12:14:36.060Z,12.8640
2023-04-18T12:15:37.019Z,12.8171
2023-04-18T12:16:38.064Z,12.8629
2023-04-18T12:17:39.274Z,12.8175
2023-04-18T12:18:40.114Z,12.9334
2023-04-18T12:19:41.232Z,13.0464
2023-04-18T12:20:42.212Z,12.9114
2023-04-18T12:21:43.217Z,13.0657
2023-04-18T12:22:44.290Z,13.1008
2023-04-18T12:23:45.310Z,13.0505
2023-04-18T12:24:46.310Z,12.7997
2023-04-18T12:25:47.349Z,13.0733
2023-04-18T12:26:48.385Z,13.1474
2023-04-18T12:27:49.440Z,13.0310
2023-04-18T12:28:50.507Z,13.1365
2023-04-18T12:29:51.540Z,13.3202
2023-04-18T12:30:52.558Z,12.9909
2023-04-18T12:31:53.655Z,12.9244
2023-04-18T12:32:54.660Z,13.0981
2023-04-18T12:33:55.692Z,13.1871